createdAt,value
2022-10-25T00:01:04.307Z,11.10
2022-10-25T00:04:46.478Z,11.10
2022-10-25T00:08:28.232Z,11.20
2022-10-25T00:12:09.961Z,11.20
2022-10-25T00:15:51.758Z,11.10
2022-10-25T00:19:33.649Z,11.20
2022-10-25T00:23:15.801Z,11.30
2022-10-25T00:26:57.537Z,11.30
2022-10-25T00:30:39.391Z,11.30
2022-10-25T00:34:21.145Z,11.40
2022-10-25T00:38:02.890Z,11.40
2022-10-25T00:41:44.703Z,11.40
2022-10-25T00:45:28.406Z,11.40
2022-10-25T00:49:17.698Z,11.40
2022-10-25T00:53:06.774Z,11.40
2022-10-25T00:56:50.735Z,11.40
2022-10-25T01:00:32.521Z,11.40
2022-10-25T01:04:17.423Z,11.40
2022-10-25T01:07:59.447Z,11.50
2022-10-25T01:11:41.168Z,11.50
2022-10-25T01:15:26.802Z,11.50
2022-10-25T01:19:54.474Z,11.50
2022-10-25T01:24:01.606Z,11.50
2022-10-25T01:28:17.325Z,11.50
2022-10-25T01:32:08.898Z,11.60
2022-10-25T01:35:50.636Z,11.60
2022-10-25T01:39:48.351Z,11.60
2022-10-25T01:43:50.940Z,11.50
2022-10-25T01:47:49.163Z,11.50
2022-10-25T01:51:31.478Z,11.50
2022-10-25T01:55:15.266Z,11.50
2022-10-25T01:59:09.263Z,11.50
2022-10-25T02:03:18.579Z,11.50
2022-10-25T02:07:11.736Z,11.50
2022-10-25T02:11:23.506Z,11.50
2022-10-25T02:15:21.396Z,11.50
2022-10-25T02:19:07.307Z,11.50
2022-10-25T02:22:51.246Z,11.50
2022-10-25T02:26:35.052Z,11.50
2022-10-25T02:30:17.394Z,11.50
2022-10-25T02:33:59.210Z,11.50
2022-10-25T02:37:41.770Z,11.50
2022-10-25T02:41:24.772Z,11.40
2022-10-25T02:45:07.141Z,11.40
2022-10-25T02:48:50.155Z,11.40
2022-10-25T02:52:31.946Z,11.40
2022-10-25T02:56:16.636Z,11.40
2022-10-25T02:59:58.391Z,11.30
2022-10-25T03:03:40.831Z,11.30
2022-10-25T03:07:22.838Z,11.30
2022-10-25T03:11:05.682Z,11.30
2022-10-25T03:14:47.394Z,11.30
2022-10-25T03:18:29.299Z,11.30
2022-10-25T03:22:11.028Z,11.30
2022-10-25T03:25:54.395Z,11.30
2022-10-25T03:29:36.466Z,11.30
2022-10-25T03:33:18.336Z,11.20
2022-10-25T03:37:00.130Z,11.20
2022-10-25T03:40:42.428Z,11.30
2022-10-25T03:44:24.112Z,11.30
2022-10-25T03:48:06.160Z,11.30
2022-10-25T03:51:50.117Z,11.30
2022-10-25T03:55:34.512Z,11.30
2022-10-25T03:59:16.263Z,11.30
2022-10-25T04:03:02.006Z,11.30
2022-10-25T04:06:44.338Z,11.30
2022-10-25T04:10:26.582Z,11.20
2022-10-25T04:14:08.386Z,11.20
2022-10-25T04:17:51.101Z,11.30
2022-10-25T04:21:32.902Z,11.30
2022-10-25T04:25:14.733Z,11.30
2022-10-25T04:28:57.018Z,11.20
2022-10-25T04:32:38.778Z,11.30
2022-10-25T04:36:21.021Z,11.30
2022-10-25T04:40:02.773Z,11.30
2022-10-25T04:43:45.056Z,11.30
2022-10-25T04:47:29.970Z,11.30
2022-10-25T04:51:12.697Z,11.40
2022-10-25T04:54:54.408Z,11.40
2022-10-25T04:58:36.811Z,11.40
2022-10-25T05:02:18.558Z,11.50
2022-10-25T05:06:21.142Z,11.50
2022-10-25T05:10:02.866Z,11.40
2022-10-25T05:13:45.291Z,11.40
2022-10-25T05:17:27.058Z,11.40
2022-10-25T05:21:10.121Z,11.40
2022-10-25T05:24:52.194Z,11.50
2022-10-25T05:28:35.856Z,11.40
2022-10-25T05:32:17.608Z,11.40
2022-10-25T05:36:00.684Z,11.40
2022-10-25T05:39:42.443Z,11.40
2022-10-25T05:43:26.193Z,11.40
2022-10-25T05:47:07.947Z,11.40
2022-10-25T05:50:53.419Z,11.40
2022-10-25T05:54:41.263Z,11.40
2022-10-25T05:58:22.962Z,11.40
2022-10-25T06:02:04.934Z,11.40
2022-10-25T06:05:46.736Z,11.40
2022-10-25T06:09:28.534Z,11.50
2022-10-25T06:13:10.242Z,11.50
2022-10-25T06:16:52.078Z,11.50
2022-10-25T06:20:33.872Z,11.50
2022-10-25T06:24:15.899Z,11.50
2022-10-25T06:27:57.634Z,11.50
2022-10-25T06:31:41.801Z,11.60
2022-10-25T06:35:23.779Z,11.60
2022-10-25T06:39:07.102Z,11.60
2022-10-25T06:42:55.259Z,11.70
2022-10-25T06:50:41.024Z,11.70
2022-10-25T06:54:22.840Z,11.70
2022-10-25T06:58:04.669Z,11.70
2022-10-25T07:01:47.390Z,11.70
2022-10-25T07:05:29.146Z,11.70
2022-10-25T07:09:12.430Z,11.70
2022-10-25T07:12:54.150Z,11.70
2022-10-25T07:16:36.582Z,11.70
2022-10-25T07:20:18.241Z,11.70
2022-10-25T07:24:00.191Z,11.70
2022-10-25T07:27:41.979Z,11.80
2022-10-25T07:31:26.815Z,11.80
2022-10-25T07:35:08.853Z,11.80
2022-10-25T07:38:51.016Z,11.80
2022-10-25T07:42:32.758Z,11.80
2022-10-25T07:46:14.563Z,11.80
2022-10-25T07:49:57.665Z,11.90
2022-10-25T07:53:39.627Z,11.90
2022-10-25T07:57:21.337Z,12.00
2022-10-25T08:01:10.461Z,12.20
2022-10-25T08:04:54.220Z,12.40
2022-10-25T08:08:36.880Z,12.60
2022-10-25T08:12:22.397Z,12.70
2022-10-25T08:16:05.206Z,12.70
2022-10-25T08:19:51.043Z,12.80
2022-10-25T08:23:33.723Z,13.10
2022-10-25T08:27:15.495Z,13.40
2022-10-25T08:30:57.244Z,13.80
2022-10-25T08:34:39.071Z,14.00
2022-10-25T08:38:20.820Z,14.20
2022-10-25T08:42:03.010Z,14.20
2022-10-25T08:46:04.808Z,14.20
2022-10-25T08:50:06.661Z,14.20
2022-10-25T08:53:52.169Z,14.20
2022-10-25T08:57:38.222Z,14.20
2022-10-25T09:01:27.506Z,14.10
2022-10-25T09:05:36.686Z,14.20
2022-10-25T09:09:43.579Z,14.20
2022-10-25T09:13:40.317Z,14.20
2022-10-25T09:17:26.826Z,14.20
2022-10-25T09:21:22.248Z,14.30
2022-10-25T09:25:12.323Z,14.30
2022-10-25T09:29:09.997Z,14.40
2022-10-25T09:33:02.933Z,14.40
2022-10-25T09:36:47.555Z,14.40
2022-10-25T09:40:45.168Z,14.60
2022-10-25T09:44:35.045Z,14.80
2022-10-25T09:48:25.300Z,14.90
2022-10-25T09:52:13.221Z,15.20
2022-10-25T09:56:00.114Z,15.40
2022-10-25T09:59:43.145Z,15.90
2022-10-25T10:03:30.515Z,16.50
2022-10-25T10:07:17.786Z,16.50
2022-10-25T10:10:59.845Z,16.40
2022-10-25T10:14:47.947Z,16.40
2022-10-25T10:18:34.362Z,16.70
2022-10-25T10:22:17.568Z,17.10
2022-10-25T10:26:12.578Z,17.10
2022-10-25T10:30:00.462Z,17.10
2022-10-25T10:33:48.461Z,17.10
2022-10-25T10:37:31.921Z,17.50
2022-10-25T10:41:24.828Z,17.80
2022-10-25T10:45:09.621Z,18.00
2022-10-25T10:48:57.201Z,18.30
2022-10-25T10:52:46.898Z,18.30
2022-10-25T10:56:30.732Z,18.30
2022-10-25T11:00:23.659Z,18.70
2022-10-25T11:04:05.602Z,19.70
2022-10-25T11:08:14.312Z,20.50
2022-10-25T11:12:11.014Z,21.00
2022-10-25T11:15:52.672Z,20.70
2022-10-25T11:20:10.300Z,20.00
2022-10-25T11:23:57.848Z,19.20
2022-10-25T11:27:57.455Z,18.60
2022-10-25T11:32:20.481Z,18.20
2022-10-25T11:36:51.323Z,17.90
2022-10-25T11:40:42.417Z,17.70
2022-10-25T11:44:56.669Z,17.90
2022-10-25T11:48:50.104Z,17.90
2022-10-25T11:53:25.832Z,17.80
2022-10-25T11:57:46.939Z,17.70
2022-10-25T12:01:48.147Z,17.40
2022-10-25T12:05:48.588Z,17.30
2022-10-25T12:09:32.960Z,17.30
2022-10-25T12:13:29.809Z,17.10
2022-10-25T12:17:26.030Z,17.30
2022-10-25T12:21:11.419Z,18.10
2022-10-25T12:25:13.904Z,19.40
2022-10-25T12:28:59.196Z,20.50
2022-10-25T12:32:43.144Z,21.10
2022-10-25T12:36:39.358Z,21.40
2022-10-25T12:44:06.464Z,22.10
2022-10-25T12:48:00.272Z,22.20
2022-10-25T12:51:57.221Z,21.90
2022-10-25T12:56:11.090Z,21.80
2022-10-25T13:00:04.913Z,21.20
2022-10-25T13:03:58.862Z,20.40
2022-10-25T13:07:40.764Z,19.70
2022-10-25T13:11:35.354Z,19.40
2022-10-25T13:15:19.107Z,19.10
2022-10-25T13:19:49.357Z,19.00
2022-10-25T13:23:51.502Z,19.00
2022-10-25T13:27:35.021Z,19.30
2022-10-25T13:31:35.035Z,20.10
2022-10-25T13:35:19.586Z,21.00
2022-10-25T13:39:05.522Z,22.10
2022-10-25T13:42:50.229Z,22.40
2022-10-25T13:46:41.210Z,22.30
2022-10-25T13:50:33.250Z,22.40
2022-10-25T13:54:15.101Z,22.10
2022-10-25T13:57:58.782Z,21.50
2022-10-25T14:01:43.800Z,20.90
2022-10-25T14:05:57.770Z,20.30
2022-10-25T14:09:40.528Z,20.30
2022-10-25T14:13:28.195Z,20.60
2022-10-25T14:17:35.979Z,20.40
2022-10-25T14:21:19.210Z,20.20
2022-10-25T14:25:05.692Z,19.90
2022-10-25T14:28:48.338Z,19.60
2022-10-25T14:32:30.106Z,19.30
2022-10-25T14:36:27.969Z,19.00
2022-10-25T14:40:19.294Z,18.70
2022-10-25T14:44:02.324Z,18.50
2022-10-25T14:47:44.234Z,18.30
2022-10-25T14:51:31.121Z,18.10
2022-10-25T14:55:30.380Z,17.90
2022-10-25T14:59:47.680Z,17.80
2022-10-25T15:03:30.466Z,17.50
2022-10-25T15:07:23.078Z,17.30
2022-10-25T15:11:18.410Z,17.10
2022-10-25T15:15:26.119Z,16.90
2022-10-25T15:19:15.508Z,16.70
2022-10-25T15:23:05.985Z,16.60
2022-10-25T15:27:05.814Z,16.60
2022-10-25T15:30:50.405Z,16.50
2022-10-25T15:34:32.951Z,16.50
2022-10-25T15:38:17.409Z,16.40
2022-10-25T15:41:59.131Z,16.20
2022-10-25T15:45:41.530Z,16.20
2022-10-25T15:49:23.730Z,16.10
2022-10-25T15:53:05.506Z,16.10
2022-10-25T15:56:48.107Z,16.00
2022-10-25T16:00:32.588Z,16.00
2022-10-25T16:04:16.546Z,15.90
2022-10-25T16:07:58.635Z,15.90
2022-10-25T16:11:46.346Z,15.80
2022-10-25T16:15:29.079Z,15.80
2022-10-25T16:19:18.726Z,15.80
2022-10-25T16:23:02.192Z,15.80
2022-10-25T16:26:47.371Z,15.70
2022-10-25T16:30:36.599Z,15.70
2022-10-25T16:34:20.468Z,15.70
2022-10-25T16:38:04.296Z,15.60
2022-10-25T16:41:46.915Z,15.60
2022-10-25T16:45:37.011Z,15.50
2022-10-25T16:49:18.759Z,15.40
2022-10-25T16:53:03.661Z,15.40
2022-10-25T16:56:45.792Z,15.40
2022-10-25T17:00:29.398Z,15.40
2022-10-25T17:04:11.514Z,15.40
2022-10-25T17:07:53.318Z,15.40
2022-10-25T17:11:36.133Z,15.30
2022-10-25T17:15:18.594Z,15.30
2022-10-25T17:19:00.430Z,15.20
2022-10-25T17:22:42.810Z,15.10
2022-10-25T17:26:24.622Z,15.10
2022-10-25T17:30:07.989Z,15.10
2022-10-25T17:33:50.927Z,15.10
2022-10-25T17:37:32.843Z,15.10
2022-10-25T17:41:15.023Z,15.00
2022-10-25T17:44:56.895Z,15.00
2022-10-25T17:48:38.666Z,15.00
2022-10-25T17:52:20.573Z,14.90
2022-10-25T17:56:13.893Z,15.00
2022-10-25T18:00:00.117Z,14.90
2022-10-25T18:03:41.893Z,14.90
2022-10-25T18:07:23.637Z,15.00
2022-10-25T18:11:09.953Z,14.90
2022-10-25T18:14:55.639Z,14.90
2022-10-25T18:18:37.849Z,14.90
2022-10-25T18:22:21.291Z,14.90
2022-10-25T18:26:04.319Z,14.90
2022-10-25T18:29:46.111Z,14.90
2022-10-25T18:33:30.409Z,14.90
2022-10-25T18:37:12.127Z,14.90
2022-10-25T18:40:54.069Z,14.90
2022-10-25T18:44:35.801Z,14.90
2022-10-25T18:48:17.662Z,14.80
2022-10-25T18:52:00.339Z,14.80
2022-10-25T18:55:46.285Z,14.80
2022-10-25T18:59:28.059Z,14.80
2022-10-25T19:03:23.545Z,14.70
2022-10-25T19:07:05.315Z,14.70
2022-10-25T19:10:47.738Z,14.70
2022-10-25T19:14:29.476Z,14.70
2022-10-25T19:18:11.286Z,14.70
2022-10-25T19:21:53.142Z,14.60
2022-10-25T19:25:35.772Z,14.60
2022-10-25T19:29:17.768Z,14.60
2022-10-25T19:33:01.330Z,14.60
2022-10-25T19:36:43.130Z,14.60
2022-10-25T19:40:24.949Z,14.60
2022-10-25T19:44:06.841Z,14.60
2022-10-25T19:47:50.086Z,14.60
2022-10-25T19:51:32.376Z,14.60
2022-10-25T19:55:14.106Z,14.50
2022-10-25T19:58:56.672Z,14.50
2022-10-25T20:02:38.716Z,14.50
2022-10-25T20:06:24.974Z,14.50
2022-10-25T20:10:07.464Z,14.50
2022-10-25T20:13:54.208Z,14.50
2022-10-25T20:17:35.989Z,14.50
2022-10-25T20:21:21.312Z,14.50
2022-10-25T20:25:04.403Z,14.60
2022-10-25T20:28:47.016Z,14.60
2022-10-25T20:32:28.756Z,14.60
2022-10-25T20:36:12.679Z,14.60
2022-10-25T20:39:54.510Z,14.70
2022-10-25T20:43:37.140Z,14.70
2022-10-25T20:47:18.839Z,14.70
2022-10-25T20:51:04.127Z,14.80
2022-10-25T20:54:48.669Z,14.80
2022-10-25T20:58:30.837Z,14.90
2022-10-25T21:02:12.670Z,14.90
2022-10-25T21:05:56.065Z,15.00
2022-10-25T21:09:39.272Z,15.10
2022-10-25T21:13:23.551Z,15.10
2022-10-25T21:17:05.625Z,15.20
2022-10-25T21:20:48.926Z,15.30
2022-10-25T21:24:30.879Z,15.30
2022-10-25T21:28:12.854Z,15.30
2022-10-25T21:31:54.551Z,15.30
2022-10-25T21:35:36.269Z,15.30
2022-10-25T21:39:23.379Z,15.40
2022-10-25T21:43:05.135Z,15.30
2022-10-25T21:46:46.920Z,15.40
2022-10-25T21:50:28.679Z,15.40
2022-10-25T21:54:10.470Z,15.50
2022-10-25T21:57:54.417Z,15.50
2022-10-25T22:01:36.629Z,15.60
2022-10-25T22:05:19.816Z,15.60
2022-10-25T22:09:01.641Z,15.60
2022-10-25T22:12:45.098Z,15.70
2022-10-25T22:16:27.990Z,15.60
2022-10-25T22:20:10.175Z,15.60
2022-10-25T22:23:52.417Z,15.60
2022-10-25T22:27:34.316Z,15.60
2022-10-25T22:31:17.567Z,15.70
2022-10-25T22:34:59.280Z,15.70
2022-10-25T22:38:41.588Z,15.70
2022-10-25T22:42:25.315Z,15.70
2022-10-25T22:46:10.622Z,15.80
2022-10-25T22:49:52.397Z,15.70
2022-10-25T22:53:35.598Z,15.70
2022-10-25T22:57:17.437Z,15.70
2022-10-25T23:01:12.922Z,15.70
2022-10-25T23:04:54.745Z,15.70
2022-10-25T23:08:36.451Z,15.80
2022-10-25T23:12:18.404Z,15.80
2022-10-25T23:16:01.165Z,15.80
2022-10-25T23:19:43.297Z,15.70
2022-10-25T23:23:26.106Z,15.70
2022-10-25T23:27:09.080Z,15.60
2022-10-25T23:30:50.830Z,15.60
2022-10-25T23:34:34.335Z,15.50
2022-10-25T23:38:16.075Z,15.50
2022-10-25T23:41:57.961Z,15.40
2022-10-25T23:45:42.024Z,15.40
2022-10-25T23:49:23.779Z,15.30
2022-10-25T23:53:05.515Z,15.20
2022-10-25T23:56:47.273Z,15.10
